PWSweather.com
Personal Weather Stations
Station Observations
UISISLE1
Newport, Isle ofWight, ISLE OF WIGHT PO30 2JX

NewportIsle ofWight, ISLE OF WIGHT PO30 2JX

Lat: 50.72, Lon: -1.27

Elevation: 45

Station Type: Davis Vantage Pro Plus

http://www.isleofwightweather.co.uk

Latest ConditionsUpdated 8:15:05 AM GMT Monday, Nov 19, 2018
Currently Today's Max Today's Min Today's Average
Temperature 43.8°F6.6°C 45.2°F7.3°C 42.9°F6.1°C 44.0°F6.7°C
Dew Point 37.1°F2.8°C 38.4°F3.6°C 36.6°F2.6°C 37.5°F3.1°C
Winds 9.6 mph ENE15.4 kmh ENE 14.0 mph -22.5 kmh - - 8.1 mph 13.0 kmh
Wind Gusts 15.0 mph24.1 kmh 22.0 mph35.4 kmh - -
Humidity 77% 82% 74% 78%
Pressure 30.14 in1020.7 mb 30.20 in1022.7 mb 30.14 in1020.7 mb -
Hour Temp Dew Point Humidity Winds Wind Gusts Pressure Precip Precip Rate Daily Precip Total
08:15 AM 43.8°F6.6°C 37.1°F2.8°C 77% 9.6 mph ENE15.4 kmh ENE 15.0 mph24.1 kmh 30.14 in1020.7 mb - 0.00 in0.0 mm 0.00 in0.0 mm
08:00 AM 44.0°F6.7°C 37.3°F2.9°C 77% 11.9 mph ENE19.2 kmh ENE 11.0 mph17.7 kmh 30.14 in1020.7 mb - 0.00 in0.0 mm 0.00 in0.0 mm
07:45 AM 44.2°F6.8°C 38.1°F3.4°C 79% 9.3 mph ENE15.0 kmh ENE 15.0 mph24.1 kmh 30.14 in1020.7 mb - 0.00 in0.0 mm 0.00 in0.0 mm
07:30 AM 44.5°F6.9°C 38.1°F3.4°C 78% 8.1 mph E13.0 kmh E 17.0 mph27.4 kmh 30.14 in1020.7 mb - 0.00 in0.0 mm 0.00 in0.0 mm
07:15 AM 44.6°F7.0°C 37.8°F3.2°C 77% 10.8 mph N17.4 kmh N 18.0 mph29.0 kmh 30.14 in1020.7 mb - 0.00 in0.0 mm 0.00 in0.0 mm
07:00 AM 44.4°F6.9°C 37.6°F3.1°C 77% 14.0 mph ENE22.5 kmh ENE 20.0 mph32.2 kmh 30.14 in1020.7 mb - 0.00 in0.0 mm 0.00 in0.0 mm
06:45 AM 44.3°F6.8°C 37.9°F3.3°C 78% 9.4 mph ENE15.1 kmh ENE 13.0 mph20.9 kmh 30.14 in1020.7 mb - 0.00 in0.0 mm 0.00 in0.0 mm
06:30 AM 44.2°F6.8°C 38.4°F3.6°C 80% 11.5 mph E18.5 kmh E 21.0 mph33.8 kmh 30.14 in1020.7 mb - 0.00 in0.0 mm 0.00 in0.0 mm
06:15 AM 43.7°F6.5°C 38.3°F3.5°C 81% 8.7 mph ENE14.0 kmh ENE 17.0 mph27.4 kmh 30.14 in1020.7 mb - 0.00 in0.0 mm 0.00 in0.0 mm
06:00 AM 43.6°F6.4°C 38.4°F3.6°C 82% 9.8 mph NE15.8 kmh NE 15.0 mph24.1 kmh 30.14 in1020.7 mb - 0.00 in0.0 mm 0.00 in0.0 mm
05:45 AM 43.4°F6.3°C 38.3°F3.5°C 82% 8.3 mph E13.4 kmh E 13.0 mph20.9 kmh 30.14 in1020.7 mb - 0.00 in0.0 mm 0.00 in0.0 mm
05:30 AM 43.4°F6.3°C 38.0°F3.3°C 81% 9.1 mph NE14.6 kmh NE 13.0 mph20.9 kmh 30.15 in1021.0 mb - 0.00 in0.0 mm 0.00 in0.0 mm
05:15 AM 43.3°F6.3°C 37.5°F3.1°C 80% 5.3 mph NE8.5 kmh NE 10.0 mph16.1 kmh 30.15 in1021.0 mb - 0.00 in0.0 mm 0.00 in0.0 mm
05:00 AM 43.2°F6.2°C 37.4°F3.0°C 80% 3.9 mph ESE6.3 kmh ESE 11.0 mph17.7 kmh 30.15 in1021.0 mb - 0.00 in0.0 mm 0.00 in0.0 mm
04:45 AM 43.1°F6.2°C 37.0°F2.8°C 79% 7.1 mph E11.4 kmh E 11.0 mph17.7 kmh 30.16 in1021.3 mb - 0.00 in0.0 mm 0.00 in0.0 mm
04:30 AM 43.0°F6.1°C 36.9°F2.7°C 79% 8.2 mph E13.2 kmh E 8.0 mph12.9 kmh 30.16 in1021.3 mb - 0.00 in0.0 mm 0.00 in0.0 mm
04:15 AM 42.9°F6.1°C 36.8°F2.7°C 79% 7.7 mph NE12.4 kmh NE 10.0 mph16.1 kmh 30.17 in1021.7 mb - 0.00 in0.0 mm 0.00 in0.0 mm
04:00 AM 43.0°F6.1°C 36.6°F2.6°C 78% 7.6 mph ESE12.2 kmh ESE 13.0 mph20.9 kmh 30.17 in1021.7 mb - 0.00 in0.0 mm 0.00 in0.0 mm
03:45 AM 43.3°F6.3°C 36.9°F2.7°C 78% 5.7 mph NE9.2 kmh NE 9.3 mph15.0 kmh 30.17 in1021.7 mb - 0.00 in0.0 mm 0.00 in0.0 mm
03:30 AM 43.6°F6.4°C 36.9°F2.7°C 77% 6.9 mph NE11.1 kmh NE 14.0 mph22.5 kmh 30.17 in1021.7 mb - 0.00 in0.0 mm 0.00 in0.0 mm
03:15 AM 43.9°F6.6°C 37.2°F2.9°C 77% 7.4 mph ENE11.9 kmh ENE 13.4 mph21.6 kmh 30.17 in1021.7 mb - 0.00 in0.0 mm 0.00 in0.0 mm
03:00 AM 44.0°F6.7°C 37.3°F2.9°C 77% 9.7 mph NNE15.6 kmh NNE 13.0 mph20.9 kmh 30.17 in1021.7 mb - 0.00 in0.0 mm 0.00 in0.0 mm
02:45 AM 44.0°F6.7°C 37.3°F2.9°C 77% 10.9 mph ENE17.5 kmh ENE 15.0 mph24.1 kmh 30.18 in1022.0 mb - 0.00 in0.0 mm 0.00 in0.0 mm
02:30 AM 44.1°F6.7°C 37.3°F2.9°C 77% 6.2 mph ENE10.0 kmh ENE 14.0 mph22.5 kmh 30.18 in1022.0 mb - 0.00 in0.0 mm 0.00 in0.0 mm
02:15 AM 44.0°F6.7°C 37.3°F2.9°C 77% 11.3 mph NE18.2 kmh NE 22.0 mph35.4 kmh 30.18 in1022.0 mb - 0.00 in0.0 mm 0.00 in0.0 mm
02:00 AM 44.2°F6.8°C 37.1°F2.8°C 76% 2.4 mph NE3.9 kmh NE 10.0 mph16.1 kmh 30.19 in1022.4 mb - 0.00 in0.0 mm 0.00 in0.0 mm
01:45 AM 44.4°F6.9°C 37.3°F2.9°C 76% 7.1 mph E11.4 kmh E 18.0 mph29.0 kmh 30.19 in1022.4 mb - 0.00 in0.0 mm 0.00 in0.0 mm
01:30 AM 44.5°F6.9°C 37.1°F2.8°C 75% 6.4 mph E10.3 kmh E 12.0 mph19.3 kmh 30.19 in1022.4 mb - 0.00 in0.0 mm 0.00 in0.0 mm
01:15 AM 44.8°F7.1°C 37.0°F2.8°C 74% 5.7 mph ENE9.2 kmh ENE 8.0 mph12.9 kmh 30.19 in1022.4 mb - 0.00 in0.0 mm 0.00 in0.0 mm
01:00 AM 45.0°F7.2°C 37.2°F2.9°C 74% 4.7 mph ENE7.6 kmh ENE 10.0 mph16.1 kmh 30.20 in1022.7 mb - 0.00 in0.0 mm 0.00 in0.0 mm
12:45 AM 45.1°F7.3°C 37.3°F2.9°C 74% 7.0 mph NE11.3 kmh NE 12.0 mph19.3 kmh 30.20 in1022.7 mb - 0.00 in0.0 mm 0.00 in0.0 mm
12:30 AM 45.2°F7.3°C 37.7°F3.2°C 75% 8.3 mph NE13.4 kmh NE 13.0 mph20.9 kmh 30.20 in1022.7 mb - 0.00 in0.0 mm 0.00 in0.0 mm
12:15 AM 45.2°F7.3°C 37.7°F3.2°C 75% 8.5 mph NNE13.7 kmh NNE 17.0 mph27.4 kmh 30.20 in1022.7 mb - 0.00 in0.0 mm 0.00 in0.0 mm
12:00 AM 45.2°F7.3°C 37.7°F3.2°C 75% 6.5 mph NE10.5 kmh NE 14.0 mph22.5 kmh 30.20 in1022.7 mb - 0.00 in0.0 mm 0.00 in0.0 mm